Ronald Reagan Washington National Airport
KDCA : now visible

Airfield :











YOU CAN JOIN US ON...

 
LOGIN :

Register | Disclaimer

   EN    FR    IT 

 









Legend :    VFR   Marginal VFR   IFR   Intensive IFR   Very Intensive IFR
Visi :
Ceiling :
>= 8 km
>= 3000ft
5 to 8 km
1000 to 3000 ft
1500m to 5 km
500 to 1000 ft
800 to 1500m
200 to 500 ft
< 800m
< 200 ft
Symbols :   Thunderstorms  Fog  Heavy snow  Heavy precipitations  Wind > 20 kt







- Airport Elevation : 15 ft
- IATA code : DCA


KDCA - Ronald Reagan Washington National

CURRENT METAR :
  • 260152Z 09006KT 10SM FEW045 SCT080 BKN250 22/14 A3019 RMK AO2 SLP222 T02170144

EXPIRED METARs :
  • 260052Z 09006KT 10SM FEW043 BKN080 BKN250 22/14 A3018 RMK AO2 SLP218 T02220144
  • 252352Z 09010KT 10SM SCT043 BKN080 BKN250 23/15 A3016 RMK AO2 RAE2256 SLP213 P0000 60000 T02330150 10267 20233 56002

TAF KDCA
Valid from the 26 at 00:00 until the 27 at 06:00 UTC


252332Z 2600/2706 06010KT P6SM SCT045 BKN250
FM260800 03007KT P6SM BKN045
FM261400 04008KT P6SM BKN030
FM261700 06008KT P6SM BKN045
FM262300 08008KT P6SM BKN030
No reported NOTAMs for that airfield.



MET'MAP, your aeronautical weather chart ! - Copyright ORBIFLY December 2007 - Disclaimer

ORBIFLY MET'MAP TEAM :

Programming & Development : Alexandra Zaïnal
Concept & Development : Baudouin d'Aumeries
Co-Development & Prog : Marc-Olivier Méhu
Technical & hardware support : Manuel Goepfert

Contact : metmap@orbifly.com




SOURCES & CREDITS :

   NOAA       Earth
Advisory